createdAt,value
2019-04-28T00:02:05.675Z,61.03
2019-04-28T00:04:36.274Z,60.66
2019-04-28T00:07:06.839Z,60.82
2019-04-28T00:09:37.427Z,60.79
2019-04-28T00:12:10.989Z,60.82
2019-04-28T00:14:44.723Z,60.93
2019-04-28T00:17:15.403Z,61.04
2019-04-28T00:19:45.999Z,61.42
2019-04-28T00:22:18.370Z,61.13
2019-04-28T00:24:56.540Z,60.90
2019-04-28T00:27:31.662Z,61.02
2019-04-28T00:30:07.408Z,61.10
2019-04-28T00:32:37.998Z,61.19
2019-04-28T00:35:08.744Z,61.37
2019-04-28T00:37:41.794Z,61.32
2019-04-28T00:40:14.391Z,60.96
2019-04-28T00:42:44.988Z,61.16
2019-04-28T00:45:16.234Z,61.23
2019-04-28T00:47:47.770Z,60.78
2019-04-28T00:50:18.360Z,60.84
2019-04-28T00:52:48.951Z,60.93
2019-04-28T00:55:21.271Z,61.00
2019-04-28T00:57:51.901Z,61.10
2019-04-28T01:00:24.196Z,61.23
2019-04-28T01:02:54.805Z,61.63
2019-04-28T01:05:25.779Z,62.27
2019-04-28T01:07:56.400Z,61.89
2019-04-28T01:10:28.211Z,62.05
2019-04-28T01:13:02.155Z,62.82
2019-04-28T01:15:49.712Z,63.01
2019-04-28T01:18:21.926Z,63.09
2019-04-28T01:20:54.136Z,62.97
2019-04-28T01:23:26.158Z,62.83
2019-04-28T01:25:57.725Z,62.65
2019-04-28T01:28:29.739Z,62.07
2019-04-28T01:31:03.345Z,62.38
2019-04-28T01:33:35.558Z,62.39
2019-04-28T01:36:07.600Z,62.22
2019-04-28T01:38:40.180Z,61.92
2019-04-28T01:41:10.961Z,61.20
2019-04-28T01:43:41.783Z,60.88
2019-04-28T01:46:12.402Z,60.72
2019-04-28T01:48:42.983Z,60.56
2019-04-28T01:51:13.537Z,61.07
2019-04-28T01:53:44.890Z,61.90
2019-04-28T01:56:17.388Z,61.61
2019-04-28T01:58:49.976Z,61.68
2019-04-28T02:01:21.551Z,61.76
2019-04-28T02:03:54.118Z,61.81
2019-04-28T02:06:25.612Z,62.40
2019-04-28T02:08:57.185Z,62.26
2019-04-28T02:11:29.150Z,62.26
2019-04-28T02:14:00.260Z,61.98
2019-04-28T02:16:30.840Z,62.34
2019-04-28T02:19:01.407Z,62.52
2019-04-28T02:21:33.611Z,62.30
2019-04-28T02:24:22.736Z,61.66
2019-04-28T02:26:53.493Z,61.36
2019-04-28T02:29:24.088Z,62.02
2019-04-28T02:31:54.680Z,62.58
2019-04-28T02:34:25.259Z,62.52
2019-04-28T02:36:55.830Z,62.64
2019-04-28T02:39:30.898Z,62.14
2019-04-28T02:42:01.502Z,63.13
2019-04-28T02:44:35.089Z,62.84
2019-04-28T02:47:04.744Z,63.34
2019-04-28T02:49:40.666Z,63.17
2019-04-28T02:52:13.094Z,63.71
2019-04-28T02:54:43.694Z,63.44
2019-04-28T02:57:14.301Z,63.46
2019-04-28T02:59:45.095Z,63.87
2019-04-28T03:02:15.737Z,62.88
2019-04-28T03:04:46.473Z,62.22
2019-04-28T03:07:17.219Z,62.62
2019-04-28T03:09:47.868Z,62.41
2019-04-28T03:12:21.311Z,63.32
2019-04-28T03:14:50.894Z,63.97
2019-04-28T03:17:21.538Z,63.84
2019-04-28T03:19:52.116Z,65.17
2019-04-28T03:22:22.768Z,65.10
2019-04-28T03:24:54.968Z,65.15
2019-04-28T03:27:27.179Z,65.97
2019-04-28T03:30:15.803Z,65.99
2019-04-28T03:32:55.435Z,66.76
2019-04-28T03:35:23.019Z,66.18
2019-04-28T03:37:53.803Z,66.13
2019-04-28T03:40:24.384Z,66.99
2019-04-28T03:42:59.286Z,66.79
2019-04-28T03:45:30.857Z,66.06
2019-04-28T03:48:02.179Z,65.27
2019-04-28T03:50:32.759Z,66.56
2019-04-28T03:53:03.401Z,66.66
2019-04-28T03:55:37.891Z,66.97
2019-04-28T03:58:10.402Z,66.39
2019-04-28T04:00:43.150Z,66.55
2019-04-28T04:03:13.696Z,66.76
2019-04-28T04:05:47.455Z,66.49
2019-04-28T04:08:20.997Z,66.35
2019-04-28T04:11:00.281Z,65.89
2019-04-28T04:13:36.355Z,66.10
2019-04-28T04:16:26.854Z,66.07
2019-04-28T04:19:00.695Z,66.65
2019-04-28T04:21:31.466Z,66.36
2019-04-28T04:24:02.143Z,66.35
2019-04-28T04:26:33.535Z,66.17
2019-04-28T04:29:05.520Z,66.64
2019-04-28T04:31:36.062Z,66.33
2019-04-28T04:34:06.671Z,65.42
2019-04-28T04:36:37.225Z,66.24
2019-04-28T04:39:10.541Z,65.74
2019-04-28T04:41:43.657Z,65.33
2019-04-28T04:44:21.034Z,64.94
2019-04-28T04:46:52.016Z,65.44
2019-04-28T04:49:22.955Z,65.28
2019-04-28T04:51:54.717Z,64.92
2019-04-28T04:54:27.264Z,64.88
2019-04-28T04:57:01.807Z,65.02
2019-04-28T04:59:33.950Z,64.70
2019-04-28T05:02:06.297Z,64.42
2019-04-28T05:04:39.565Z,64.53
2019-04-28T05:07:10.851Z,64.08
2019-04-28T05:09:41.478Z,64.17
2019-04-28T05:12:12.070Z,65.33
2019-04-28T05:14:43.189Z,65.43
2019-04-28T05:17:13.796Z,64.60
2019-04-28T05:19:44.377Z,65.66
2019-04-28T05:22:16.578Z,65.05
2019-04-28T05:24:54.400Z,66.00
2019-04-28T05:27:25.575Z,65.73
2019-04-28T05:30:02.525Z,64.58
2019-04-28T05:32:41.482Z,64.24
2019-04-28T05:35:01.993Z,64.72
2019-04-28T05:37:32.545Z,65.42
2019-04-28T05:40:03.106Z,64.68
2019-04-28T05:42:33.686Z,65.00
2019-04-28T05:45:07.517Z,64.10
2019-04-28T05:47:38.039Z,63.21
2019-04-28T05:50:10.683Z,63.97
2019-04-28T05:53:01.247Z,64.53
2019-04-28T05:55:33.440Z,63.71
2019-04-28T05:58:09.873Z,63.87
2019-04-28T06:00:57.372Z,64.60
2019-04-28T06:03:30.237Z,65.10
2019-04-28T06:06:00.910Z,64.89
2019-04-28T06:08:34.239Z,63.82
2019-04-28T06:11:07.173Z,62.85
2019-04-28T06:13:38.046Z,63.03
2019-04-28T06:16:09.900Z,63.20
2019-04-28T06:18:42.137Z,63.30
2019-04-28T06:21:12.990Z,61.87
2019-04-28T06:23:43.509Z,59.33
2019-04-28T06:26:14.219Z,58.19
2019-04-28T06:28:44.779Z,59.28
2019-04-28T06:31:16.351Z,58.71
2019-04-28T06:33:47.523Z,58.68
2019-04-28T06:36:18.129Z,57.25
2019-04-28T06:38:48.759Z,58.91
2019-04-28T06:41:19.338Z,59.21
2019-04-28T06:43:49.890Z,59.71
2019-04-28T06:46:20.457Z,61.03
2019-04-28T06:48:51.059Z,61.24
2019-04-28T06:51:21.648Z,61.34
2019-04-28T06:53:54.158Z,61.07
2019-04-28T06:56:24.803Z,60.89
2019-04-28T06:58:59.295Z,61.12
2019-04-28T07:01:31.739Z,61.74
2019-04-28T07:04:04.367Z,61.95
2019-04-28T07:06:34.996Z,62.04
2019-04-28T07:09:07.243Z,62.50
2019-04-28T07:11:40.044Z,62.89
2019-04-28T07:14:10.711Z,62.36
2019-04-28T07:16:41.334Z,62.38
2019-04-28T07:19:11.945Z,61.28
2019-04-28T07:22:02.473Z,61.56
2019-04-28T07:24:33.197Z,62.00
2019-04-28T07:27:05.648Z,61.83
2019-04-28T07:29:36.205Z,61.67
2019-04-28T07:32:06.785Z,62.02
2019-04-28T07:34:38.338Z,62.23
2019-04-28T07:37:09.785Z,62.36
2019-04-28T07:39:42.239Z,62.12
2019-04-28T07:42:12.825Z,62.58
2019-04-28T07:44:43.396Z,62.59
2019-04-28T07:47:13.956Z,62.30
2019-04-28T07:49:44.535Z,61.92
2019-04-28T07:52:16.733Z,62.67
2019-04-28T07:54:47.306Z,62.65
2019-04-28T07:57:17.953Z,63.04
2019-04-28T07:59:48.525Z,63.02
2019-04-28T08:02:19.308Z,61.43
2019-04-28T08:04:50.984Z,61.89
2019-04-28T08:07:21.595Z,62.30
2019-04-28T08:09:52.657Z,62.03
2019-04-28T08:12:23.394Z,61.71
2019-04-28T08:14:54.124Z,60.69
2019-04-28T08:17:24.896Z,60.72
2019-04-28T08:19:55.471Z,60.88
2019-04-28T08:22:26.235Z,60.42
2019-04-28T08:24:56.843Z,60.61
2019-04-28T08:27:27.412Z,60.11
2019-04-28T08:29:58.952Z,60.47
2019-04-28T08:32:37.249Z,60.82
2019-04-28T08:35:08.340Z,61.26
2019-04-28T08:37:38.906Z,61.14
2019-04-28T08:40:09.757Z,61.29
2019-04-28T08:42:40.647Z,61.16
2019-04-28T08:45:11.985Z,61.22
2019-04-28T08:47:42.790Z,61.39
2019-04-28T08:50:13.831Z,60.71
2019-04-28T08:52:44.692Z,60.60
2019-04-28T08:55:15.587Z,61.31
2019-04-28T08:57:46.472Z,60.45
2019-04-28T09:00:17.573Z,59.84
2019-04-28T09:02:48.444Z,60.36
2019-04-28T09:05:19.516Z,59.63
2019-04-28T09:07:50.205Z,58.74
2019-04-28T09:10:21.301Z,58.46
2019-04-28T09:12:53.169Z,58.02
2019-04-28T09:15:24.051Z,57.71
2019-04-28T09:17:54.734Z,58.28
2019-04-28T09:20:25.424Z,57.91
2019-04-28T09:22:56.088Z,57.88
2019-04-28T09:25:27.116Z,58.05
2019-04-28T09:27:57.816Z,57.98
2019-04-28T09:30:28.390Z,57.17
2019-04-28T09:32:59.015Z,57.51
2019-04-28T09:35:29.589Z,57.35
2019-04-28T09:38:00.210Z,57.14
2019-04-28T09:40:30.842Z,56.47
2019-04-28T09:43:03.087Z,56.55
2019-04-28T09:45:35.411Z,55.89
2019-04-28T09:48:07.361Z,56.80
2019-04-28T09:50:38.490Z,56.08
2019-04-28T09:53:09.514Z,56.39
2019-04-28T09:55:40.496Z,55.57
2019-04-28T09:58:11.116Z,56.86
2019-04-28T10:00:42.377Z,55.60
2019-04-28T10:03:13.718Z,55.61
2019-04-28T10:05:44.881Z,55.89
2019-04-28T10:08:15.957Z,56.02
2019-04-28T10:10:46.886Z,55.90
2019-04-28T10:13:17.854Z,56.09
2019-04-28T10:15:49.239Z,56.20
2019-04-28T10:18:19.877Z,55.91
2019-04-28T10:20:50.951Z,55.40
2019-04-28T10:23:21.677Z,54.60
2019-04-28T10:25:53.037Z,55.27
2019-04-28T10:28:24.108Z,54.89
2019-04-28T10:30:54.756Z,54.96
2019-04-28T10:33:25.713Z,55.56
2019-04-28T10:35:56.261Z,55.42
2019-04-28T10:38:26.856Z,55.06
2019-04-28T10:41:02.012Z,55.15
2019-04-28T10:43:34.036Z,54.27
2019-04-28T10:46:08.320Z,54.44
2019-04-28T10:48:38.968Z,53.81
2019-04-28T10:51:09.527Z,53.92
2019-04-28T10:53:40.288Z,52.96
2019-04-28T10:56:10.869Z,53.04
2019-04-28T10:58:43.367Z,53.29
2019-04-28T11:01:14.134Z,52.76
2019-04-28T11:03:46.351Z,52.92
2019-04-28T11:06:17.020Z,52.11
2019-04-28T11:08:49.233Z,51.92
2019-04-28T11:11:21.475Z,52.28
2019-04-28T11:13:55.604Z,52.21
2019-04-28T11:23:28.200Z,52.31
2019-04-28T11:25:59.558Z,53.26
2019-04-28T11:28:30.211Z,51.95
2019-04-28T11:31:00.953Z,52.68
2019-04-28T11:33:39.234Z,52.84
2019-04-28T11:36:09.921Z,53.76
2019-04-28T11:38:40.844Z,53.94
2019-04-28T11:41:12.028Z,53.59
2019-04-28T11:43:42.800Z,53.23
2019-04-28T11:46:15.316Z,52.70
2019-04-28T11:48:46.746Z,53.07
2019-04-28T11:51:17.650Z,52.92
2019-04-28T11:53:48.389Z,53.49
2019-04-28T11:56:19.288Z,53.27
2019-04-28T11:58:50.883Z,52.51
2019-04-28T12:01:23.732Z,53.63
2019-04-28T12:03:56.720Z,52.56
2019-04-28T12:06:27.915Z,52.67
2019-04-28T12:09:00.163Z,52.51
2019-04-28T12:11:36.009Z,53.53
2019-04-28T12:14:17.951Z,52.44
2019-04-28T12:17:02.628Z,52.93
2019-04-28T12:19:43.899Z,52.50
2019-04-28T12:22:14.473Z,53.78
2019-04-28T12:24:45.383Z,52.82
2019-04-28T12:27:15.950Z,53.07
2019-04-28T12:29:46.782Z,52.86
2019-04-28T12:32:19.651Z,52.94
2019-04-28T12:34:50.216Z,52.88
2019-04-28T12:37:20.807Z,53.33
2019-04-28T12:39:51.379Z,52.38
2019-04-28T12:42:21.968Z,52.53
2019-04-28T12:44:52.548Z,53.29
2019-04-28T12:47:23.142Z,53.79
2019-04-28T12:49:55.374Z,54.21
2019-04-28T12:52:28.874Z,54.17
2019-04-28T12:55:01.624Z,53.45
2019-04-28T12:57:33.204Z,53.57
2019-04-28T13:00:10.018Z,53.42
2019-04-28T13:02:42.331Z,52.73
2019-04-28T13:05:17.609Z,52.71
2019-04-28T13:07:48.602Z,53.09
2019-04-28T13:10:19.373Z,52.66
2019-04-28T13:21:01.339Z,53.67
2019-04-28T13:23:31.895Z,54.72
2019-04-28T13:26:02.953Z,54.22
2019-04-28T13:28:33.648Z,53.70
2019-04-28T13:31:04.239Z,53.84
2019-04-28T13:33:34.777Z,53.63
2019-04-28T13:36:14.577Z,53.72
2019-04-28T13:38:37.677Z,54.65
2019-04-28T13:41:08.249Z,54.15
2019-04-28T13:43:38.818Z,54.36
2019-04-28T13:46:09.521Z,54.36
2019-04-28T13:48:40.183Z,54.58
2019-04-28T13:51:10.938Z,54.86
2019-04-28T13:53:42.632Z,55.46
2019-04-28T13:56:13.174Z,55.36
2019-04-28T13:58:44.985Z,55.68
2019-04-28T14:01:20.450Z,55.87
2019-04-28T14:03:52.873Z,56.12
2019-04-28T14:06:28.366Z,56.35
2019-04-28T14:08:57.417Z,56.53
2019-04-28T14:11:27.965Z,55.91
2019-04-28T14:13:58.575Z,56.21
2019-04-28T14:16:29.580Z,56.26
2019-04-28T14:19:00.542Z,55.73
2019-04-28T14:21:31.561Z,55.95
2019-04-28T14:24:02.885Z,55.86
2019-04-28T14:26:33.891Z,55.96
2019-04-28T14:29:05.391Z,56.48
2019-04-28T14:31:36.785Z,55.81
2019-04-28T14:34:08.019Z,56.02
2019-04-28T14:36:42.285Z,56.38
2019-04-28T14:39:11.045Z,56.28
2019-04-28T14:41:42.823Z,56.58
2019-04-28T14:44:13.475Z,57.11
2019-04-28T14:46:44.058Z,58.15
2019-04-28T14:49:14.647Z,59.55
2019-04-28T14:51:45.278Z,60.32
2019-04-28T14:54:16.031Z,59.97
2019-04-28T14:56:46.659Z,61.07
2019-04-28T14:59:17.721Z,62.05
2019-04-28T15:01:53.140Z,62.21
2019-04-28T15:04:42.005Z,63.34
2019-04-28T15:07:15.353Z,64.10
2019-04-28T15:10:00.595Z,64.77
2019-04-28T15:12:31.202Z,65.04
2019-04-28T15:15:01.835Z,64.77
2019-04-28T15:17:33.064Z,65.26
2019-04-28T15:20:05.284Z,65.47
2019-04-28T15:22:36.518Z,66.24
2019-04-28T15:25:07.710Z,67.41
2019-04-28T15:27:38.318Z,67.34
2019-04-28T15:30:11.073Z,68.06
2019-04-28T15:32:41.632Z,69.56
2019-04-28T15:35:12.319Z,68.87
2019-04-28T15:37:43.372Z,68.80
2019-04-28T15:40:14.221Z,69.39
2019-04-28T15:42:45.027Z,69.42
2019-04-28T15:45:15.982Z,70.15
2019-04-28T15:47:47.118Z,69.42
2019-04-28T15:50:19.965Z,69.73
2019-04-28T15:52:53.609Z,69.82
2019-04-28T15:55:32.251Z,69.93
2019-04-28T15:58:21.314Z,69.08
2019-04-28T16:00:52.505Z,69.27
2019-04-28T16:03:25.224Z,69.99
2019-04-28T16:05:56.210Z,70.05
2019-04-28T16:08:27.134Z,71.67
2019-04-28T16:10:58.596Z,71.50
2019-04-28T16:13:29.316Z,70.69
2019-04-28T16:16:00.001Z,71.60
2019-04-28T16:18:30.972Z,71.69
2019-04-28T16:21:01.749Z,71.93
2019-04-28T16:23:32.899Z,70.25
2019-04-28T16:26:04.439Z,70.01
2019-04-28T16:28:35.465Z,70.93
2019-04-28T16:31:06.320Z,71.03
2019-04-28T16:33:36.980Z,70.95
2019-04-28T16:36:08.251Z,71.59
2019-04-28T16:38:38.932Z,72.76
2019-04-28T16:41:19.313Z,72.49
2019-04-28T16:43:51.872Z,73.35
2019-04-28T16:46:22.482Z,73.50
2019-04-28T16:48:53.171Z,73.94
2019-04-28T16:51:24.071Z,73.83
2019-04-28T16:53:54.778Z,73.37
2019-04-28T16:56:36.133Z,74.06
2019-04-28T16:59:24.685Z,73.99
2019-04-28T17:02:03.062Z,73.97
2019-04-28T17:04:33.757Z,74.32
2019-04-28T17:07:05.749Z,74.33
2019-04-28T17:09:37.349Z,74.15
2019-04-28T17:12:08.375Z,74.53
2019-04-28T17:14:40.733Z,73.71
2019-04-28T17:17:12.207Z,74.67
2019-04-28T17:19:43.133Z,75.61
2019-04-28T17:22:14.003Z,75.04
2019-04-28T17:24:44.555Z,75.21
2019-04-28T17:27:15.134Z,75.41
2019-04-28T17:29:45.691Z,75.47
2019-04-28T17:32:17.218Z,75.55
2019-04-28T17:34:47.821Z,76.22
2019-04-28T17:37:18.479Z,76.14
2019-04-28T17:39:49.062Z,76.12
2019-04-28T17:42:19.741Z,76.21
2019-04-28T17:44:51.986Z,75.34
2019-04-28T17:47:23.110Z,75.61
2019-04-28T17:49:53.710Z,75.53
2019-04-28T17:52:24.539Z,75.33
2019-04-28T17:54:56.676Z,75.23
2019-04-28T17:57:28.258Z,75.87
2019-04-28T18:00:00.792Z,75.66
2019-04-28T18:02:42.475Z,75.68
2019-04-28T18:05:22.311Z,75.19
2019-04-28T18:07:56.566Z,75.70
2019-04-28T18:10:27.930Z,75.83
2019-04-28T18:13:00.834Z,75.50
2019-04-28T18:15:35.716Z,76.87
2019-04-28T18:18:11.949Z,75.23
2019-04-28T18:20:42.608Z,74.86
2019-04-28T18:23:13.182Z,74.92
2019-04-28T18:25:43.810Z,76.35
2019-04-28T18:28:14.548Z,75.95
2019-04-28T18:30:46.894Z,75.20
2019-04-28T18:33:37.650Z,75.17
2019-04-28T18:36:11.455Z,76.49
2019-04-28T18:38:55.865Z,76.44
2019-04-28T18:41:40.514Z,76.44
2019-04-28T18:44:15.461Z,76.86
2019-04-28T18:46:46.473Z,76.87
2019-04-28T18:49:17.131Z,76.31
2019-04-28T18:51:48.079Z,76.74
2019-04-28T18:54:19.102Z,77.34
2019-04-28T18:56:51.329Z,76.79
2019-04-28T18:59:24.279Z,77.10
2019-04-28T19:02:05.729Z,76.63
2019-04-28T19:04:37.600Z,76.17
2019-04-28T19:07:10.378Z,76.44
2019-04-28T19:09:45.679Z,76.05
2019-04-28T19:12:19.494Z,76.29
2019-04-28T19:14:54.549Z,76.75
2019-04-28T19:17:27.066Z,78.09
2019-04-28T19:20:01.216Z,78.12
2019-04-28T19:22:33.874Z,78.50
2019-04-28T19:25:07.009Z,78.76
2019-04-28T19:27:38.163Z,77.63
2019-04-28T19:30:09.454Z,78.78
2019-04-28T19:32:40.218Z,79.30
2019-04-28T19:35:12.074Z,78.95
2019-04-28T19:37:43.219Z,78.91
2019-04-28T19:40:15.418Z,79.06
2019-04-28T19:42:46.397Z,79.46
2019-04-28T19:45:18.812Z,78.28
2019-04-28T19:47:49.791Z,78.66
2019-04-28T19:50:21.761Z,79.04
2019-04-28T19:52:56.469Z,78.49
2019-04-28T19:55:28.434Z,79.35
2019-04-28T19:58:06.727Z,79.50
2019-04-28T20:00:51.405Z,79.43
2019-04-28T20:03:22.189Z,79.48
2019-04-28T20:05:52.744Z,79.56
2019-04-28T20:08:23.306Z,79.65
2019-04-28T20:10:54.366Z,79.61
2019-04-28T20:13:25.155Z,79.62
2019-04-28T20:15:55.737Z,79.19
2019-04-28T20:18:29.393Z,79.55
2019-04-28T20:20:58.968Z,80.05
2019-04-28T20:23:29.619Z,80.04
2019-04-28T20:26:00.258Z,79.73
2019-04-28T20:28:30.871Z,80.09
2019-04-28T20:31:01.521Z,80.02
2019-04-28T20:33:32.101Z,80.09
2019-04-28T20:36:13.381Z,80.37
2019-04-28T20:38:45.780Z,80.96
2019-04-28T20:41:20.038Z,80.58
2019-04-28T20:43:51.280Z,80.71
2019-04-28T20:46:21.873Z,81.14
2019-04-28T20:48:52.492Z,81.58
2019-04-28T20:51:23.103Z,81.42
2019-04-28T20:53:53.704Z,81.15
2019-04-28T20:56:24.269Z,81.31
2019-04-28T20:58:54.991Z,81.35
2019-04-28T21:01:25.650Z,80.83
2019-04-28T21:03:56.239Z,81.02
2019-04-28T21:06:26.816Z,81.10
2019-04-28T21:08:57.482Z,81.75
2019-04-28T21:11:27.996Z,81.57
2019-04-28T21:13:58.599Z,81.97
2019-04-28T21:16:29.170Z,82.26
2019-04-28T21:18:59.746Z,82.16
2019-04-28T21:21:30.323Z,81.74
2019-04-28T21:24:02.705Z,81.60
2019-04-28T21:26:33.257Z,81.84
2019-04-28T21:29:04.034Z,81.43
2019-04-28T21:31:34.618Z,81.24
2019-04-28T21:34:05.292Z,80.69
2019-04-28T21:36:36.241Z,80.54
2019-04-28T21:39:08.966Z,81.41
2019-04-28T21:41:40.798Z,81.06
2019-04-28T21:44:19.238Z,81.31
2019-04-28T21:46:51.455Z,81.49
2019-04-28T21:49:26.336Z,82.16
2019-04-28T21:51:58.443Z,81.84
2019-04-28T21:54:29.068Z,81.74
2019-04-28T21:56:59.663Z,82.07
2019-04-28T21:59:30.312Z,82.09
2019-04-28T22:02:00.979Z,82.07
2019-04-28T22:04:31.589Z,82.24
2019-04-28T22:07:02.190Z,82.46
2019-04-28T22:09:33.001Z,82.67
2019-04-28T22:12:03.668Z,82.59
2019-04-28T22:14:35.408Z,83.04
2019-04-28T22:17:07.711Z,83.46
2019-04-28T22:19:38.264Z,83.52
2019-04-28T22:22:09.052Z,83.05
2019-04-28T22:24:47.490Z,83.03
2019-04-28T22:27:19.787Z,82.83
2019-04-28T22:29:50.394Z,82.69
2019-04-28T22:32:21.002Z,83.07
2019-04-28T22:34:51.564Z,82.96
2019-04-28T22:37:22.137Z,82.23
2019-04-28T22:39:52.741Z,82.17
2019-04-28T22:42:23.554Z,82.44
2019-04-28T22:44:54.387Z,82.30
2019-04-28T22:47:24.941Z,82.19
2019-04-28T22:49:55.556Z,82.86
2019-04-28T22:52:26.158Z,83.14
2019-04-28T22:54:58.396Z,82.76
2019-04-28T22:57:30.639Z,82.89
2019-04-28T23:00:01.460Z,83.25
2019-04-28T23:02:33.645Z,83.60
2019-04-28T23:05:08.323Z,84.05
2019-04-28T23:07:39.063Z,83.81
2019-04-28T23:10:10.468Z,83.76
2019-04-28T23:12:41.077Z,83.75
2019-04-28T23:15:14.018Z,83.66
2019-04-28T23:17:44.487Z,83.72
2019-04-28T23:20:15.514Z,82.74
2019-04-28T23:22:47.862Z,83.07
2019-04-28T23:25:19.544Z,83.33
2019-04-28T23:27:50.148Z,83.05
2019-04-28T23:30:42.183Z,83.01
2019-04-28T23:33:13.060Z,82.80
2019-04-28T23:35:43.910Z,83.17
2019-04-28T23:38:14.651Z,83.35
2019-04-28T23:40:47.351Z,83.43
2019-04-28T23:43:23.490Z,83.90
2019-04-28T23:45:54.139Z,83.48
2019-04-28T23:48:24.743Z,84.09
2019-04-28T23:50:56.994Z,84.21
2019-04-28T23:53:38.354Z,84.48
2019-04-28T23:56:08.958Z,84.78
2019-04-28T23:58:39.583Z,85.65
